Time;durP1;ratioP1;P1;durP2;ratioP2;P2;SDS_P1;SDS_P2;PMS_P1;PMS_P2;Temp;Humidity;BMP_temperature;BMP_pressure;BME280_temperature;BME280_humidity;BME280_pressure;Samples;Min_cycle;Max_cycle;Signal;HPM_P1;HPM_P2
2024/03/24 00:02:20;;;;;;;;;;;;;;;;;;106913;1249;62067;-82
2024/03/24 00:04:47;;;;;;;;;;;;;;;;;;106930;1250;62039;-79
2024/03/24 00:07:13;;;;;;;;;;;;;;;;;;107283;1251;61919;-81
2024/03/24 00:09:39;;;;;;;;;;;;;;;;;;106968;1250;62140;-79
2024/03/24 00:12:05;;;;;;;;;;;;;;;;;;107023;1251;62146;-79
2024/03/24 00:14:31;;;;;;;;;;;;;;;;;;106670;1250;62127;-79
2024/03/24 00:16:57;;;;;;;;;;;;;;;;;;107782;1249;62020;-81
2024/03/24 00:19:23;;;;;;;;;;;;;;;;;;108902;1249;61878;-79
2024/03/24 00:21:50;;;;;;;;;;;;;;;;;;106939;1254;62149;-79
2024/03/24 00:24:16;;;;;;;;;;;;;;;;;;107016;1251;62725;-78
2024/03/24 00:26:42;;;;;;;;;;;;;;;;;;107829;1254;62643;-79
2024/03/24 00:29:08;;;;;;;;;;;;;;;;;;107451;1249;62164;-79
2024/03/24 00:31:34;;;;;;;;;;;;;;;;;;106945;1251;62036;-81
2024/03/24 00:34:01;;;;;;;;;;;;;;;;;;106826;1251;61947;-82
2024/03/24 00:36:27;;;;;;;;;;;;;;;;;;106912;1250;62200;-82
2024/03/24 00:38:53;;;;;;;;;;;;;;;;;;106870;1250;62497;-79
2024/03/24 00:41:19;;;;;;;;;;;;;;;;;;106891;1254;62126;-81
2024/03/24 00:43:45;;;;;;;;;;;;;;;;;;106922;1250;62157;-79
2024/03/24 00:46:12;;;;;;;;;;;;;;;;;;106914;1253;63275;-79
2024/03/24 00:48:38;;;;;;;;;;;;;;;;;;106949;1253;62090;-79
2024/03/24 00:51:04;;;;;;;;;;;;;;;;;;107012;1253;62405;-79
2024/03/24 00:53:30;;;;;;;;;;;;;;;;;;106880;1249;62137;-79
2024/03/24 00:55:56;;;;;;;;;;;;;;;;;;106904;1253;62153;-82
2024/03/24 00:58:22;;;;;;;;;;;;;;;;;;106866;1251;62154;-83
2024/03/24 01:00:49;;;;;;;;;;;;;;;;;;106968;1250;62127;-79
2024/03/24 01:03:15;;;;;;;;;;;;;;;;;;106952;1250;62019;-79
2024/03/24 01:05:41;;;;;;;;;;;;;;;;;;106933;1250;62086;-79
2024/03/24 01:08:08;;;;;;;;;;;;;;;;;;106976;1253;62028;-81
2024/03/24 01:10:34;;;;;;;;;;;;;;;;;;106897;1250;62499;-82
2024/03/24 01:13:00;;;;;;;;;;;;;;;;;;106926;1251;62090;-79
2024/03/24 01:15:28;;;;;;;;;;;;;;;;;;108814;1250;59922;-79
2024/03/24 01:17:54;;;;;;;;;;;;;;;;;;108374;1249;61779;-79
2024/03/24 01:20:20;;;;;;;;;;;;;;;;;;106447;1250;62416;-79
2024/03/24 01:22:46;;;;;;;;;;;;;;;;;;106425;1254;62131;-82
2024/03/24 01:25:13;;;;;;;;;;;;;;;;;;106916;1249;62044;-79
2024/03/24 01:27:39;;;;;;;;;;;;;;;;;;106912;1250;62154;-79
2024/03/24 01:30:05;;;;;;;;;;;;;;;;;;106935;1250;62073;-81
2024/03/24 01:32:31;;;;;;;;;;;;;;;;;;106958;1249;62125;-82
2024/03/24 01:34:57;;;;;;;;;;;;;;;;;;106931;1249;62067;-82
2024/03/24 01:37:23;;;;;;;;;;;;;;;;;;106945;1250;63586;-79
2024/03/24 01:39:50;;;;;;;;;;;;;;;;;;106916;1254;62526;-81
2024/03/24 01:42:16;;;;;;;;;;;;;;;;;;106918;1251;62076;-81
2024/03/24 01:44:42;;;;;;;;;;;;;;;;;;106940;1250;62080;-82
2024/03/24 01:47:11;;;;;;;;;;;;;;;;;;108911;1249;62029;-79
2024/03/24 01:49:37;;;;;;;;;;;;;;;;;;109709;1249;60233;-80
2024/03/24 01:52:03;;;;;;;;;;;;;;;;;;108783;1249;62030;-79
2024/03/24 01:54:29;;;;;;;;;;;;;;;;;;106991;1250;62117;-83
2024/03/24 01:56:55;;;;;;;;;;;;;;;;;;106915;1250;62022;-82
2024/03/24 01:59:22;;;;;;;;;;;;;;;;;;106962;1249;62163;-79
2024/03/24 02:01:48;;;;;;;;;;;;;;;;;;106923;1249;62110;-82
2024/03/24 02:04:15;;;;;;;;;;;;;;;;;;106876;1250;62083;-81
2024/03/24 02:06:41;;;;;;;;;;;;;;;;;;106962;1254;62227;-82
2024/03/24 02:09:07;;;;;;;;;;;;;;;;;;106929;1253;62176;-82
2024/03/24 02:11:33;;;;;;;;;;;;;;;;;;106978;1253;62077;-82
2024/03/24 02:14:00;;;;;;;;;;;;;;;;;;107764;1249;62153;-79
2024/03/24 02:16:26;;;;;;;;;;;;;;;;;;109629;1249;59921;-82
2024/03/24 02:18:52;;;;;;;;;;;;;;;;;;106955;1253;62120;-79
2024/03/24 02:21:18;;;;;;;;;;;;;;;;;;107014;1250;62022;-81
2024/03/24 02:23:44;;;;;;;;;;;;;;;;;;106882;1249;62077;-81
2024/03/24 02:26:11;;;;;;;;;;;;;;;;;;106872;1250;63031;-79
2024/03/24 02:28:37;;;;;;;;;;;;;;;;;;106969;1250;62138;-79
2024/03/24 02:31:03;;;;;;;;;;;;;;;;;;106975;1249;62166;-79
2024/03/24 02:33:29;;;;;;;;;;;;;;;;;;106943;1253;62122;-79
2024/03/24 02:35:55;;;;;;;;;;;;;;;;;;106857;1250;62118;-81
2024/03/24 02:38:22;;;;;;;;;;;;;;;;;;106947;1250;62122;-81
2024/03/24 02:40:48;;;;;;;;;;;;;;;;;;106904;1249;62147;-81
2024/03/24 02:43:14;;;;;;;;;;;;;;;;;;106913;1253;62588;-80
2024/03/24 02:45:41;;;;;;;;;;;;;;;;;;106908;1253;62134;-78
2024/03/24 02:48:07;;;;;;;;;;;;;;;;;;106840;1250;62099;-78
2024/03/24 02:50:34;;;;;;;;;;;;;;;;;;106963;1250;62808;-78
2024/03/24 02:53:00;;;;;;;;;;;;;;;;;;106932;1249;62057;-81
2024/03/24 02:55:26;;;;;;;;;;;;;;;;;;106920;1249;61959;-81
2024/03/24 02:57:52;;;;;;;;;;;;;;;;;;106968;1253;62114;-79
2024/03/24 03:00:18;;;;;;;;;;;;;;;;;;106455;1249;62054;-81
2024/03/24 03:02:44;;;;;;;;;;;;;;;;;;106432;1254;62146;-78
2024/03/24 03:05:10;;;;;;;;;;;;;;;;;;106399;1250;62140;-81
2024/03/24 03:07:37;;;;;;;;;;;;;;;;;;106445;1250;62020;-81
2024/03/24 03:10:07;;;;;;;;;;;;;;;;;;106429;1250;62131;-78
2024/03/24 03:12:34;;;;;;;;;;;;;;;;;;106415;1250;61910;-78
2024/03/24 03:15:00;;;;;;;;;;;;;;;;;;106479;1250;62035;-78
2024/03/24 03:17:26;;;;;;;;;;;;;;;;;;106437;1250;62182;-81
2024/03/24 03:19:52;;;;;;;;;;;;;;;;;;106460;1249;62026;-79
2024/03/24 03:22:18;;;;;;;;;;;;;;;;;;106421;1250;62138;-78
2024/03/24 03:24:44;;;;;;;;;;;;;;;;;;106424;1250;62125;-81
2024/03/24 03:27:12;;;;;;;;;;;;;;;;;;106749;1250;62052;-79
2024/03/24 03:29:38;;;;;;;;;;;;;;;;;;106415;1250;62099;-80
2024/03/24 03:32:05;;;;;;;;;;;;;;;;;;106414;1250;62167;-81
2024/03/24 03:34:31;;;;;;;;;;;;;;;;;;106436;1249;62167;-78
2024/03/24 03:36:58;;;;;;;;;;;;;;;;;;106413;1250;64260;-81
2024/03/24 03:39:24;;;;;;;;;;;;;;;;;;106882;1250;62069;-80
2024/03/24 03:41:52;;;;;;;;;;;;;;;;;;106959;1250;62147;-78
2024/03/24 03:44:18;;;;;;;;;;;;;;;;;;106917;1251;62498;-80
2024/03/24 03:46:44;;;;;;;;;;;;;;;;;;106957;1253;62128;-78
2024/03/24 03:49:14;;;;;;;;;;;;;;;;;;106957;1250;62039;-81
2024/03/24 03:51:42;;;;;;;;;;;;;;;;;;106906;1250;62101;-81
2024/03/24 03:54:10;;;;;;;;;;;;;;;;;;106897;1253;62680;-78
2024/03/24 03:56:36;;;;;;;;;;;;;;;;;;106426;1253;62072;-79
2024/03/24 03:59:02;;;;;;;;;;;;;;;;;;106422;1250;62525;-81
2024/03/24 04:01:28;;;;;;;;;;;;;;;;;;106352;1251;62141;-78
2024/03/24 04:03:55;;;;;;;;;;;;;;;;;;106455;1250;62161;-80
2024/03/24 04:06:21;;;;;;;;;;;;;;;;;;106460;1253;62041;-80
2024/03/24 04:08:47;;;;;;;;;;;;;;;;;;106440;1253;62167;-78
2024/03/24 04:11:14;;;;;;;;;;;;;;;;;;106405;1250;62076;-78
2024/03/24 04:13:40;;;;;;;;;;;;;;;;;;106398;1250;62074;-78
2024/03/24 04:16:06;;;;;;;;;;;;;;;;;;106425;1254;62263;-78
2024/03/24 04:18:33;;;;;;;;;;;;;;;;;;106463;1254;61920;-81
2024/03/24 04:20:59;;;;;;;;;;;;;;;;;;106414;1250;62066;-81
2024/03/24 04:23:25;;;;;;;;;;;;;;;;;;106428;1250;62148;-80
2024/03/24 04:25:51;;;;;;;;;;;;;;;;;;106444;1250;62173;-78
2024/03/24 04:28:17;;;;;;;;;;;;;;;;;;106719;1250;62081;-80
2024/03/24 04:30:44;;;;;;;;;;;;;;;;;;109715;1249;59915;-81
2024/03/24 04:33:10;;;;;;;;;;;;;;;;;;109635;1249;59720;-79
2024/03/24 04:35:36;;;;;;;;;;;;;;;;;;109675;1250;59656;-81
2024/03/24 04:38:03;;;;;;;;;;;;;;;;;;109712;1249;59915;-81
2024/03/24 04:40:29;;;;;;;;;;;;;;;;;;108757;1249;62076;-82
2024/03/24 04:42:55;;;;;;;;;;;;;;;;;;106922;1250;62150;-78
2024/03/24 04:45:21;;;;;;;;;;;;;;;;;;106412;1254;62202;-81
2024/03/24 04:47:48;;;;;;;;;;;;;;;;;;106398;1249;62085;-78
2024/03/24 04:50:14;;;;;;;;;;;;;;;;;;106952;1254;62016;-81
2024/03/24 04:52:40;;;;;;;;;;;;;;;;;;106369;1251;62038;-78
2024/03/24 04:55:06;;;;;;;;;;;;;;;;;;106342;1251;62186;-80
2024/03/24 04:57:33;;;;;;;;;;;;;;;;;;106368;1250;62103;-81
2024/03/24 04:59:59;;;;;;;;;;;;;;;;;;106375;1254;63979;-78
2024/03/24 05:02:25;;;;;;;;;;;;;;;;;;106407;1250;62067;-78
2024/03/24 05:04:51;;;;;;;;;;;;;;;;;;106479;1249;62130;-81
2024/03/24 05:07:17;;;;;;;;;;;;;;;;;;106404;1250;62137;-81
2024/03/24 05:09:43;;;;;;;;;;;;;;;;;;106829;1251;62039;-78
2024/03/24 05:12:10;;;;;;;;;;;;;;;;;;106903;1253;62113;-81
2024/03/24 05:14:36;;;;;;;;;;;;;;;;;;106945;1249;62099;-79
2024/03/24 05:17:03;;;;;;;;;;;;;;;;;;106899;1250;62161;-78
2024/03/24 05:19:29;;;;;;;;;;;;;;;;;;106401;1250;62150;-81
2024/03/24 05:21:56;;;;;;;;;;;;;;;;;;106409;1250;62170;-80
2024/03/24 05:24:22;;;;;;;;;;;;;;;;;;106370;1251;63184;-78
2024/03/24 05:26:48;;;;;;;;;;;;;;;;;;106432;1253;62160;-81
2024/03/24 05:29:14;;;;;;;;;;;;;;;;;;106411;1250;62145;-81
2024/03/24 05:31:40;;;;;;;;;;;;;;;;;;106362;1254;62244;-79
2024/03/24 05:34:07;;;;;;;;;;;;;;;;;;106421;1254;62134;-81
2024/03/24 05:36:34;;;;;;;;;;;;;;;;;;106429;1255;61911;-78
2024/03/24 05:39:01;;;;;;;;;;;;;;;;;;106382;1250;62063;-78
2024/03/24 05:41:28;;;;;;;;;;;;;;;;;;106435;1250;62182;-78
2024/03/24 05:43:54;;;;;;;;;;;;;;;;;;106377;1250;62082;-78
2024/03/24 05:46:20;;;;;;;;;;;;;;;;;;106388;1253;62147;-80
2024/03/24 05:48:46;;;;;;;;;;;;;;;;;;106928;1250;62000;-81
2024/03/24 05:51:12;;;;;;;;;;;;;;;;;;106899;1250;62172;-79
2024/03/24 05:53:38;;;;;;;;;;;;;;;;;;106927;1250;62735;-79
2024/03/24 05:56:05;;;;;;;;;;;;;;;;;;106879;1253;62050;-78
2024/03/24 05:58:31;;;;;;;;;;;;;;;;;;106860;1251;62070;-80
2024/03/24 06:00:57;;;;;;;;;;;;;;;;;;106881;1250;62064;-78
2024/03/24 06:03:24;;;;;;;;;;;;;;;;;;106458;1250;62585;-78
2024/03/24 06:05:51;;;;;;;;;;;;;;;;;;106417;1250;62272;-78
2024/03/24 06:08:17;;;;;;;;;;;;;;;;;;106406;1250;62073;-78
2024/03/24 06:10:43;;;;;;;;;;;;;;;;;;106276;1250;188930;-80
2024/03/24 06:13:09;;;;;;;;;;;;;;;;;;106403;1251;63009;-79
2024/03/24 06:15:35;;;;;;;;;;;;;;;;;;106407;1253;62063;-80
2024/03/24 06:18:05;;;;;;;;;;;;;;;;;;106448;1250;62036;-81
2024/03/24 06:20:31;;;;;;;;;;;;;;;;;;106874;1250;62169;-78
2024/03/24 06:22:57;;;;;;;;;;;;;;;;;;106429;1250;62658;-78
2024/03/24 06:25:23;;;;;;;;;;;;;;;;;;106435;1250;62163;-79
2024/03/24 06:27:49;;;;;;;;;;;;;;;;;;106359;1253;63132;-81
2024/03/24 06:30:15;;;;;;;;;;;;;;;;;;106412;1250;62160;-81
2024/03/24 06:32:43;;;;;;;;;;;;;;;;;;106394;1251;62081;-81
2024/03/24 06:35:11;;;;;;;;;;;;;;;;;;106408;1250;62097;-80
2024/03/24 06:37:38;;;;;;;;;;;;;;;;;;106375;1250;63380;-78
2024/03/24 06:40:04;;;;;;;;;;;;;;;;;;106423;1254;62123;-78
2024/03/24 06:42:30;;;;;;;;;;;;;;;;;;106352;1254;62233;-81
2024/03/24 06:44:56;;;;;;;;;;;;;;;;;;106351;1250;62204;-80
2024/03/24 06:47:23;;;;;;;;;;;;;;;;;;106396;1254;62064;-78
2024/03/24 06:49:49;;;;;;;;;;;;;;;;;;106392;1253;62040;-78
2024/03/24 06:52:15;;;;;;;;;;;;;;;;;;107622;1250;62041;-81
2024/03/24 06:54:42;;;;;;;;;;;;;;;;;;109523;1250;59642;-79
2024/03/24 06:57:09;;;;;;;;;;;;;;;;;;106405;1250;62537;-81
2024/03/24 06:59:35;;;;;;;;;;;;;;;;;;106418;1256;62031;-77
2024/03/24 07:02:01;;;;;;;;;;;;;;;;;;106460;1250;62456;-78
2024/03/24 07:04:30;;;;;;;;;;;;;;;;;;106578;1254;62076;-80
2024/03/24 07:06:56;;;;;;;;;;;;;;;;;;106407;1254;62128;-78
2024/03/24 07:09:22;;;;;;;;;;;;;;;;;;106411;1250;62115;-81
2024/03/24 07:11:48;;;;;;;;;;;;;;;;;;106432;1256;62159;-81
2024/03/24 07:14:14;;;;;;;;;;;;;;;;;;106983;1253;62057;-82
2024/03/24 07:16:40;;;;;;;;;;;;;;;;;;106950;1250;62134;-81
2024/03/24 07:19:07;;;;;;;;;;;;;;;;;;106945;1249;62161;-78
2024/03/24 07:21:33;;;;;;;;;;;;;;;;;;106928;1250;62163;-79
2024/03/24 07:24:00;;;;;;;;;;;;;;;;;;106444;1250;62066;-81
2024/03/24 07:26:26;;;;;;;;;;;;;;;;;;106870;1253;62243;-81
2024/03/24 07:28:52;;;;;;;;;;;;;;;;;;106932;1250;62028;-81
2024/03/24 07:31:18;;;;;;;;;;;;;;;;;;106927;1255;62127;-81
2024/03/24 07:33:45;;;;;;;;;;;;;;;;;;106876;1250;62026;-81
2024/03/24 07:36:11;;;;;;;;;;;;;;;;;;107236;1250;62154;-81
2024/03/24 07:38:38;;;;;;;;;;;;;;;;;;107593;1250;62039;-81
2024/03/24 07:41:04;;;;;;;;;;;;;;;;;;106938;1250;62151;-82
2024/03/24 07:43:30;;;;;;;;;;;;;;;;;;106884;1249;63217;-79
2024/03/24 07:45:57;;;;;;;;;;;;;;;;;;106450;1250;62589;-81
2024/03/24 07:48:23;;;;;;;;;;;;;;;;;;106971;1250;62162;-79
2024/03/24 07:50:49;;;;;;;;;;;;;;;;;;107021;1250;62136;-79
2024/03/24 07:53:15;;;;;;;;;;;;;;;;;;107126;1251;62114;-79
2024/03/24 07:55:41;;;;;;;;;;;;;;;;;;106971;1250;62304;-82
2024/03/24 07:58:08;;;;;;;;;;;;;;;;;;106889;1250;62049;-82
2024/03/24 08:00:34;;;;;;;;;;;;;;;;;;107026;1254;62035;-82
2024/03/24 08:03:00;;;;;;;;;;;;;;;;;;107651;1249;62148;-80
2024/03/24 08:05:26;;;;;;;;;;;;;;;;;;107813;1254;60696;-78
2024/03/24 08:07:52;;;;;;;;;;;;;;;;;;107092;1250;62077;-79
2024/03/24 08:10:19;;;;;;;;;;;;;;;;;;106571;1256;62070;-80
2024/03/24 08:12:46;;;;;;;;;;;;;;;;;;106425;1251;62065;-80
2024/03/24 08:15:12;;;;;;;;;;;;;;;;;;106434;1250;62036;-77
2024/03/24 08:17:38;;;;;;;;;;;;;;;;;;106425;1253;62270;-78
2024/03/24 08:20:06;;;;;;;;;;;;;;;;;;106400;1255;62130;-80
2024/03/24 08:22:32;;;;;;;;;;;;;;;;;;106455;1250;62071;-80
2024/03/24 08:24:58;;;;;;;;;;;;;;;;;;106415;1254;62456;-80
2024/03/24 08:27:24;;;;;;;;;;;;;;;;;;106830;1254;63205;-82
2024/03/24 08:29:51;;;;;;;;;;;;;;;;;;106858;1249;62147;-80
2024/03/24 08:32:19;;;;;;;;;;;;;;;;;;106911;1250;62183;-82
2024/03/24 08:34:46;;;;;;;;;;;;;;;;;;106877;1251;62067;-82
2024/03/24 08:37:12;;;;;;;;;;;;;;;;;;106891;1250;62618;-80
2024/03/24 08:39:38;;;;;;;;;;;;;;;;;;106899;1250;62188;-82
2024/03/24 08:42:04;;;;;;;;;;;;;;;;;;106858;1251;62136;-80
2024/03/24 08:44:30;;;;;;;;;;;;;;;;;;106889;1250;62148;-80
2024/03/24 08:46:57;;;;;;;;;;;;;;;;;;106894;1250;62152;-82
2024/03/24 08:49:23;;;;;;;;;;;;;;;;;;106876;1250;62185;-79
2024/03/24 08:51:51;;;;;;;;;;;;;;;;;;106867;1251;62025;-82
2024/03/24 08:54:18;;;;;;;;;;;;;;;;;;106884;1250;62132;-80
2024/03/24 08:56:44;;;;;;;;;;;;;;;;;;106918;1250;61991;-82
2024/03/24 08:59:10;;;;;;;;;;;;;;;;;;106893;1250;62226;-82
2024/03/24 09:01:37;;;;;;;;;;;;;;;;;;106933;1254;62114;-82
2024/03/24 09:04:03;;;;;;;;;;;;;;;;;;106851;1250;62070;-80
2024/03/24 09:06:29;;;;;;;;;;;;;;;;;;106918;1250;62156;-82
2024/03/24 09:08:56;;;;;;;;;;;;;;;;;;106931;1250;62071;-80
2024/03/24 09:11:22;;;;;;;;;;;;;;;;;;106896;1254;62025;-80
2024/03/24 09:13:48;;;;;;;;;;;;;;;;;;106903;1253;62144;-82
2024/03/24 09:16:14;;;;;;;;;;;;;;;;;;107711;1250;61987;-80
2024/03/24 09:18:40;;;;;;;;;;;;;;;;;;109694;1250;59670;-82
2024/03/24 09:21:07;;;;;;;;;;;;;;;;;;109717;1251;59666;-78
2024/03/24 09:23:33;;;;;;;;;;;;;;;;;;109727;1250;59849;-81
2024/03/24 09:25:59;;;;;;;;;;;;;;;;;;109752;1249;59583;-81
2024/03/24 09:28:26;;;;;;;;;;;;;;;;;;107811;1254;62086;-78
2024/03/24 09:30:52;;;;;;;;;;;;;;;;;;106435;1253;62178;-80
2024/03/24 09:33:18;;;;;;;;;;;;;;;;;;106355;1250;62040;-82
2024/03/24 09:35:44;;;;;;;;;;;;;;;;;;106947;1250;62242;-79
2024/03/24 09:38:10;;;;;;;;;;;;;;;;;;106972;1250;62173;-79
2024/03/24 09:40:36;;;;;;;;;;;;;;;;;;106972;1254;62460;-82
2024/03/24 09:43:02;;;;;;;;;;;;;;;;;;107004;1254;62082;-80
2024/03/24 09:45:29;;;;;;;;;;;;;;;;;;106988;1250;62090;-82
2024/03/24 09:47:55;;;;;;;;;;;;;;;;;;106995;1250;62173;-80
2024/03/24 09:50:22;;;;;;;;;;;;;;;;;;106982;1250;62084;-82
2024/03/24 09:52:48;;;;;;;;;;;;;;;;;;106894;1253;63391;-81
2024/03/24 09:55:16;;;;;;;;;;;;;;;;;;106893;1250;62159;-82
2024/03/24 09:57:42;;;;;;;;;;;;;;;;;;108493;1249;62127;-80
2024/03/24 10:00:10;;;;;;;;;;;;;;;;;;107241;1256;62079;-80
2024/03/24 10:02:36;;;;;;;;;;;;;;;;;;106842;1253;61981;-82
2024/03/24 10:05:03;;;;;;;;;;;;;;;;;;106845;1250;62130;-79
2024/03/24 10:07:29;;;;;;;;;;;;;;;;;;106860;1251;62077;-81
2024/03/24 10:09:55;;;;;;;;;;;;;;;;;;106946;1250;62080;-81
2024/03/24 10:12:21;;;;;;;;;;;;;;;;;;106971;1254;62214;-80
2024/03/24 10:14:49;;;;;;;;;;;;;;;;;;106914;1256;61945;-82
2024/03/24 10:17:20;;;;;;;;;;;;;;;;;;106956;1250;62317;-81
2024/03/24 10:19:46;;;;;;;;;;;;;;;;;;106914;1253;61953;-78
2024/03/24 10:22:12;;;;;;;;;;;;;;;;;;106466;1254;61946;-81
2024/03/24 10:24:38;;;;;;;;;;;;;;;;;;106892;1253;62026;-81
2024/03/24 10:27:04;;;;;;;;;;;;;;;;;;106850;1250;62150;-78
2024/03/24 10:29:31;;;;;;;;;;;;;;;;;;106942;1250;62124;-79
2024/03/24 10:31:57;;;;;;;;;;;;;;;;;;106923;1256;62160;-79
2024/03/24 10:34:23;;;;;;;;;;;;;;;;;;106878;1256;62156;-79
2024/03/24 10:36:49;;;;;;;;;;;;;;;;;;108289;1250;62093;-79
2024/03/24 10:39:16;;;;;;;;;;;;;;;;;;109681;1250;59723;-79
2024/03/24 10:41:42;;;;;;;;;;;;;;;;;;109699;1250;59589;-79
2024/03/24 10:44:08;;;;;;;;;;;;;;;;;;109715;1250;59595;-82
2024/03/24 10:46:35;;;;;;;;;;;;;;;;;;109715;1253;59624;-80
2024/03/24 10:49:01;;;;;;;;;;;;;;;;;;109687;1250;59791;-79
2024/03/24 10:51:27;;;;;;;;;;;;;;;;;;109680;1250;59624;-82
2024/03/24 10:53:53;;;;;;;;;;;;;;;;;;109711;1249;59919;-79
2024/03/24 10:56:20;;;;;;;;;;;;;;;;;;109681;1250;61510;-81
2024/03/24 10:58:46;;;;;;;;;;;;;;;;;;109722;1250;59615;-82
2024/03/24 11:01:12;;;;;;;;;;;;;;;;;;108759;1250;62246;-81
2024/03/24 11:03:38;;;;;;;;;;;;;;;;;;106896;1250;62074;-79
2024/03/24 11:06:04;;;;;;;;;;;;;;;;;;106901;1250;62134;-81
2024/03/24 11:08:30;;;;;;;;;;;;;;;;;;106921;1256;62138;-78
2024/03/24 11:11:01;;;;;;;;;;;;;;;;;;106909;1250;62075;-79
2024/03/24 11:13:27;;;;;;;;;;;;;;;;;;106896;1255;62123;-81
2024/03/24 11:15:53;;;;;;;;;;;;;;;;;;107368;1251;62047;-79
2024/03/24 11:18:19;;;;;;;;;;;;;;;;;;109739;1251;59688;-81
2024/03/24 11:20:46;;;;;;;;;;;;;;;;;;109701;1250;59667;-81
2024/03/24 11:23:12;;;;;;;;;;;;;;;;;;109706;1250;59620;-81
2024/03/24 11:25:39;;;;;;;;;;;;;;;;;;109681;1250;59664;-81
2024/03/24 11:28:05;;;;;;;;;;;;;;;;;;107306;1253;62135;-80
2024/03/24 11:30:31;;;;;;;;;;;;;;;;;;106906;1254;62153;-78
2024/03/24 11:32:57;;;;;;;;;;;;;;;;;;106444;1250;62137;-78
2024/03/24 11:35:23;;;;;;;;;;;;;;;;;;106426;1251;62098;-80
2024/03/24 11:37:50;;;;;;;;;;;;;;;;;;106426;1250;62167;-78
2024/03/24 11:40:16;;;;;;;;;;;;;;;;;;106429;1255;62237;-80
2024/03/24 11:42:42;;;;;;;;;;;;;;;;;;106957;1254;62124;-79
2024/03/24 11:45:08;;;;;;;;;;;;;;;;;;106403;1253;62153;-81
2024/03/24 11:47:35;;;;;;;;;;;;;;;;;;106400;1251;62172;-77
2024/03/24 11:50:01;;;;;;;;;;;;;;;;;;106410;1256;62083;-80
2024/03/24 11:52:27;;;;;;;;;;;;;;;;;;106446;1250;62062;-78
2024/03/24 11:54:53;;;;;;;;;;;;;;;;;;106430;1251;62002;-79
2024/03/24 11:57:19;;;;;;;;;;;;;;;;;;106404;1251;62217;-78
2024/03/24 11:59:46;;;;;;;;;;;;;;;;;;106399;1250;62132;-78
2024/03/24 12:02:12;;;;;;;;;;;;;;;;;;106407;1253;62127;-79
2024/03/24 12:04:38;;;;;;;;;;;;;;;;;;106476;1256;62099;-80
2024/03/24 12:07:06;;;;;;;;;;;;;;;;;;106545;1253;62182;-80
2024/03/24 12:09:32;;;;;;;;;;;;;;;;;;106923;1250;62029;-80
2024/03/24 12:11:58;;;;;;;;;;;;;;;;;;106963;1253;63285;-78
2024/03/24 12:14:24;;;;;;;;;;;;;;;;;;106486;1253;62187;-81
2024/03/24 12:16:50;;;;;;;;;;;;;;;;;;106976;1251;62156;-81
2024/03/24 12:19:17;;;;;;;;;;;;;;;;;;106978;1251;62077;-81
2024/03/24 12:21:43;;;;;;;;;;;;;;;;;;106899;1256;62146;-81
2024/03/24 12:24:09;;;;;;;;;;;;;;;;;;106876;1253;62046;-81
2024/03/24 12:26:36;;;;;;;;;;;;;;;;;;106880;1253;62668;-78
2024/03/24 12:29:02;;;;;;;;;;;;;;;;;;106449;1251;64151;-81
2024/03/24 12:31:28;;;;;;;;;;;;;;;;;;106898;1254;62167;-81
2024/03/24 12:33:55;;;;;;;;;;;;;;;;;;106866;1253;62168;-81
2024/03/24 12:36:21;;;;;;;;;;;;;;;;;;106914;1254;62022;-79
2024/03/24 12:38:47;;;;;;;;;;;;;;;;;;106948;1253;59972;-81
2024/03/24 12:41:13;;;;;;;;;;;;;;;;;;106944;1254;62696;-79
2024/03/24 12:43:42;;;;;;;;;;;;;;;;;;106404;1253;62243;-79
2024/03/24 12:46:08;;;;;;;;;;;;;;;;;;106460;1253;62090;-78
2024/03/24 12:48:35;;;;;;;;;;;;;;;;;;106392;1252;62034;-81
2024/03/24 12:51:01;;;;;;;;;;;;;;;;;;106992;1253;62240;-79
2024/03/24 12:53:27;;;;;;;;;;;;;;;;;;106861;1253;62089;-78
2024/03/24 12:55:53;;;;;;;;;;;;;;;;;;106899;1263;62124;-79
2024/03/24 12:58:20;;;;;;;;;;;;;;;;;;106907;1253;63093;-81
2024/03/24 13:00:46;;;;;;;;;;;;;;;;;;106958;1250;62070;-81
2024/03/24 13:03:12;;;;;;;;;;;;;;;;;;106913;1251;62150;-78
2024/03/24 13:05:38;;;;;;;;;;;;;;;;;;106926;1254;62050;-79
2024/03/24 13:08:04;;;;;;;;;;;;;;;;;;106884;1251;62032;-81
2024/03/24 13:10:31;;;;;;;;;;;;;;;;;;106907;1253;62182;-79
2024/03/24 13:12:57;;;;;;;;;;;;;;;;;;106921;1254;62133;-81
2024/03/24 13:15:23;;;;;;;;;;;;;;;;;;106912;1251;62055;-79
2024/03/24 13:17:49;;;;;;;;;;;;;;;;;;106992;1254;62211;-81
2024/03/24 13:20:16;;;;;;;;;;;;;;;;;;106956;1250;62163;-78
2024/03/24 13:22:42;;;;;;;;;;;;;;;;;;106905;1251;62147;-81
2024/03/24 13:25:08;;;;;;;;;;;;;;;;;;106928;1251;62093;-79
2024/03/24 13:27:34;;;;;;;;;;;;;;;;;;106492;1256;62076;-78
2024/03/24 13:30:01;;;;;;;;;;;;;;;;;;106429;1256;62021;-81
2024/03/24 13:32:27;;;;;;;;;;;;;;;;;;106929;1253;62058;-81
2024/03/24 13:34:53;;;;;;;;;;;;;;;;;;106902;1251;63204;-79
2024/03/24 13:37:19;;;;;;;;;;;;;;;;;;109231;1250;59690;-81
2024/03/24 13:39:45;;;;;;;;;;;;;;;;;;109736;1251;59924;-79
2024/03/24 13:42:12;;;;;;;;;;;;;;;;;;109676;1251;59934;-79
2024/03/24 13:44:38;;;;;;;;;;;;;;;;;;106940;1253;62114;-78
2024/03/24 13:47:06;;;;;;;;;;;;;;;;;;108599;1250;61906;-81
2024/03/24 13:49:32;;;;;;;;;;;;;;;;;;108288;1253;62154;-81
2024/03/24 13:51:59;;;;;;;;;;;;;;;;;;107048;1251;62045;-79
2024/03/24 13:54:25;;;;;;;;;;;;;;;;;;106932;1251;62093;-81
2024/03/24 13:56:51;;;;;;;;;;;;;;;;;;106935;1251;62087;-81
2024/03/24 13:59:17;;;;;;;;;;;;;;;;;;106920;1254;62074;-79
2024/03/24 14:01:43;;;;;;;;;;;;;;;;;;107004;1251;62052;-81
2024/03/24 14:04:09;;;;;;;;;;;;;;;;;;106956;1253;62242;-81
2024/03/24 14:06:36;;;;;;;;;;;;;;;;;;106927;1253;62035;-81
2024/03/24 14:09:02;;;;;;;;;;;;;;;;;;106919;1251;62016;-79
2024/03/24 14:11:28;;;;;;;;;;;;;;;;;;109728;1250;59599;-79
2024/03/24 14:13:55;;;;;;;;;;;;;;;;;;109725;1250;59657;-81
2024/03/24 14:16:28;;;;;;;;;;;;;;;;;;109557;1250;59875;-79
2024/03/24 14:18:54;;;;;;;;;;;;;;;;;;106962;1251;63154;-81
2024/03/24 14:21:20;;;;;;;;;;;;;;;;;;106962;1254;61989;-79
2024/03/24 14:23:46;;;;;;;;;;;;;;;;;;106919;1253;62066;-79
2024/03/24 14:26:13;;;;;;;;;;;;;;;;;;108173;1251;61949;-78
2024/03/24 14:28:39;;;;;;;;;;;;;;;;;;108082;1251;62171;-79
2024/03/24 14:31:05;;;;;;;;;;;;;;;;;;106897;1253;62143;-81
2024/03/24 14:33:31;;;;;;;;;;;;;;;;;;106913;1253;62167;-79
2024/03/24 14:35:57;;;;;;;;;;;;;;;;;;106944;1254;61918;-79
2024/03/24 14:38:23;;;;;;;;;;;;;;;;;;108779;1250;61916;-81
2024/03/24 14:40:50;;;;;;;;;;;;;;;;;;106949;1254;62127;-78
2024/03/24 14:43:16;;;;;;;;;;;;;;;;;;106447;1253;62041;-78
2024/03/24 14:45:43;;;;;;;;;;;;;;;;;;106461;1254;62153;-78
2024/03/24 14:48:11;;;;;;;;;;;;;;;;;;106420;1251;62077;-78
2024/03/24 14:50:37;;;;;;;;;;;;;;;;;;106403;1254;62204;-80
2024/03/24 14:53:04;;;;;;;;;;;;;;;;;;106851;1253;62157;-81
2024/03/24 14:55:30;;;;;;;;;;;;;;;;;;106880;1251;62131;-78
2024/03/24 14:57:56;;;;;;;;;;;;;;;;;;106449;1253;62153;-78
2024/03/24 15:00:23;;;;;;;;;;;;;;;;;;106488;1251;62162;-77
2024/03/24 15:02:49;;;;;;;;;;;;;;;;;;106563;1251;62208;-80
2024/03/24 15:05:15;;;;;;;;;;;;;;;;;;106600;1249;62116;-78
2024/03/24 15:07:41;;;;;;;;;;;;;;;;;;106647;1254;62068;-80
2024/03/24 15:10:08;;;;;;;;;;;;;;;;;;107004;1252;62087;-78
2024/03/24 15:12:34;;;;;;;;;;;;;;;;;;106908;1254;62168;-78
2024/03/24 15:15:00;;;;;;;;;;;;;;;;;;106964;1251;62129;-81
2024/03/24 15:17:27;;;;;;;;;;;;;;;;;;108485;1251;62153;-80
2024/03/24 15:19:54;;;;;;;;;;;;;;;;;;107913;1249;61103;-80
2024/03/24 15:22:20;;;;;;;;;;;;;;;;;;108122;1249;62058;-78
2024/03/24 15:24:46;;;;;;;;;;;;;;;;;;106447;1253;62130;-80
2024/03/24 15:27:12;;;;;;;;;;;;;;;;;;106884;1251;62130;-80
2024/03/24 15:29:38;;;;;;;;;;;;;;;;;;106857;1251;62086;-78
2024/03/24 15:32:04;;;;;;;;;;;;;;;;;;106939;1253;62076;-80
2024/03/24 15:34:31;;;;;;;;;;;;;;;;;;106866;1251;63139;-80
2024/03/24 15:36:57;;;;;;;;;;;;;;;;;;106882;1251;62090;-79
2024/03/24 15:39:23;;;;;;;;;;;;;;;;;;106429;1251;62344;-78
2024/03/24 15:41:49;;;;;;;;;;;;;;;;;;106485;1254;62792;-78
2024/03/24 15:44:15;;;;;;;;;;;;;;;;;;106459;1254;62131;-78
2024/03/24 15:46:41;;;;;;;;;;;;;;;;;;106440;1251;65007;-80
2024/03/24 15:49:08;;;;;;;;;;;;;;;;;;106427;1251;63033;-78
2024/03/24 15:51:34;;;;;;;;;;;;;;;;;;106413;1257;62163;-81
2024/03/24 15:54:00;;;;;;;;;;;;;;;;;;106393;1256;62068;-80
2024/03/24 15:56:26;;;;;;;;;;;;;;;;;;107048;1251;62204;-78
2024/03/24 15:58:52;;;;;;;;;;;;;;;;;;106430;1251;62157;-83
2024/03/24 16:01:18;;;;;;;;;;;;;;;;;;106970;1253;62108;-77
2024/03/24 16:03:45;;;;;;;;;;;;;;;;;;106433;1251;62147;-82
2024/03/24 16:06:11;;;;;;;;;;;;;;;;;;106896;1253;62073;-82
2024/03/24 16:08:37;;;;;;;;;;;;;;;;;;106911;1251;62159;-81
2024/03/24 16:11:03;;;;;;;;;;;;;;;;;;106942;1250;63144;-83
2024/03/24 16:13:29;;;;;;;;;;;;;;;;;;107003;1251;62092;-80
2024/03/24 16:15:55;;;;;;;;;;;;;;;;;;106917;1254;62068;-80
2024/03/24 16:18:22;;;;;;;;;;;;;;;;;;107002;1250;61462;-80
2024/03/24 16:20:48;;;;;;;;;;;;;;;;;;106853;1251;62129;-83
2024/03/24 16:23:14;;;;;;;;;;;;;;;;;;106947;1251;63350;-78